Forest City, IA

10:41 PM CDT on April 23, 2018 (GMT -0500)
Forest City Municipal

Weather History for KFXY - April, 2014

Change the Weather History Date:

Saturday, April 26, 2014

  Actual Average Record
Temperature  
Mean Temperature 52 °F -  
Max Temperature 62 °F 65 °F 73 °F (2013)
Min Temperature 41 °F 40 °F 28 °F (2015)
Degree Days  
Heating Degree Days 14    
Growing Degree Days 2 (Base 50)    
Moisture  
Dew Point 37 °F    
Average Humidity 60    
Maximum Humidity 93    
Minimum Humidity 39    
Precipitation  
Precipitation 0.00 in - - ()
Sea Level Pressure  
Sea Level Pressure 29.85 in    
Wind  
Wind Speed 10 mph (East)    
Max Wind Speed 24 mph    
Max Gust Speed 38 mph    
Visibility 10 miles    
Events      
Averages and records for this station are not official NWS values.
T = Trace of Precipitation, MM = Missing Value Source: NWS Daily Summary

Daily Weather History Graph

Daily Weather History Graph

Search for Another Location

Airport or City:

Astronomy

Apr. 26, 2014 Rise Set
Actual Time 6:14 AM CDT 8:10 PM CDT
Civil Twilight 5:44 AM CDT 8:41 PM CDT
Nautical Twilight 5:06 AM CDT 9:18 PM CDT
Astronomical Twilight 4:26 AM CDT 9:59 PM CDT
Moon 4:44 AM CDT (4/26) 5:35 PM CDT (4/26)
Length of Visible Light 14h 56m
Length of Day
13h 55m
Waning Crescent, 8% of the Moon is Illuminated
Apr 26
Waning Crescent
Apr 29
New
May 6
First Quarter
May 14
Full
May 21
Last Quarter

Hourly Weather History & Observations

Time (CDT) Temp. Windchill Dew Point Humidity Pressure Visibility Wind Dir Wind Speed Gust Speed Precip Events Conditions
12:15 AM 44.6 °F 43.1 °F 39.2 °F 81% 29.85 in 10.0 mi NNE 3.5 mph - N/A   Clear
12:35 AM 44.6 °F - 39.2 °F 81% 29.86 in 10.0 mi Calm Calm - N/A   Clear
12:55 AM 42.8 °F - 39.2 °F 87% 29.86 in 10.0 mi Calm Calm - N/A   Clear
1:15 AM 41.0 °F - 39.2 °F 93% 29.86 in 10.0 mi Calm Calm - N/A   Clear
1:35 AM 41.0 °F 37.1 °F 37.4 °F 87% 29.86 in 10.0 mi NE 5.8 mph - N/A   Clear
1:55 AM 46.4 °F 43.5 °F 37.4 °F 71% 29.86 in 10.0 mi NE 5.8 mph - N/A   Clear
2:15 AM 46.4 °F 44.3 °F 39.2 °F 76% 29.86 in 10.0 mi ENE 4.6 mph - N/A   Clear
2:35 AM 46.4 °F 43.5 °F 39.2 °F 76% 29.86 in 10.0 mi NE 5.8 mph - N/A   Clear
2:55 AM 46.4 °F 44.3 °F 39.2 °F 76% 29.86 in 10.0 mi NE 4.6 mph - N/A   Clear
3:15 AM 44.6 °F 40.7 °F 39.2 °F 81% 29.87 in 10.0 mi NE 6.9 mph - N/A   Clear
3:35 AM 44.6 °F 42.2 °F 39.2 °F 81% 29.88 in 10.0 mi NE 4.6 mph - N/A   Clear
3:55 AM 44.6 °F 40.7 °F 39.2 °F 81% 29.88 in 10.0 mi NE 6.9 mph - N/A   Clear
4:15 AM 44.6 °F 40.7 °F 39.2 °F 81% 29.87 in 10.0 mi ENE 6.9 mph - N/A   Clear
4:35 AM 44.6 °F 40.2 °F 39.2 °F 81% 29.88 in 10.0 mi ENE 8.1 mph - N/A   Clear
4:55 AM 42.8 °F 38.6 °F 37.4 °F 81% 29.88 in 10.0 mi ENE 6.9 mph - N/A   Clear
5:15 AM 42.8 °F 37.0 °F 37.4 °F 81% 29.89 in 10.0 mi ENE 10.4 mph - N/A   Clear
5:35 AM 42.8 °F 38.0 °F 37.4 °F 81% 29.89 in 10.0 mi ENE 8.1 mph - N/A   Clear
5:55 AM 41.0 °F 35.8 °F 35.6 °F 81% 29.90 in 10.0 mi East 8.1 mph - N/A   Clear
6:15 AM 41.0 °F 35.8 °F 35.6 °F 81% 29.91 in 10.0 mi ENE 8.1 mph - N/A   Clear
6:35 AM 41.0 °F 35.8 °F 35.6 °F 81% 29.90 in 10.0 mi East 8.1 mph - N/A   Clear
6:55 AM 41.0 °F 35.2 °F 35.6 °F 81% 29.91 in 10.0 mi East 9.2 mph - N/A   Clear
7:15 AM 41.0 °F 34.3 °F 35.6 °F 81% 29.91 in 10.0 mi East 11.5 mph 18.4 mph N/A   Clear
7:35 AM 42.8 °F 38.0 °F 33.8 °F 70% 29.92 in 10.0 mi East 8.1 mph 16.1 mph N/A   Clear
7:55 AM 42.8 °F 37.5 °F 33.8 °F 70% 29.92 in 10.0 mi ENE 9.2 mph - N/A   Clear
8:15 AM 44.6 °F 37.8 °F 33.8 °F 66% 29.92 in 10.0 mi East 15.0 mph 20.7 mph N/A   Clear
8:35 AM 44.6 °F 38.4 °F 33.8 °F 66% 29.93 in 10.0 mi ENE 12.7 mph - N/A   Clear
8:55 AM 46.4 °F 40.7 °F 35.6 °F 66% 29.92 in 10.0 mi ENE 12.7 mph 18.4 mph N/A   Clear
9:15 AM 46.4 °F 41.1 °F 35.6 °F 66% 29.92 in 10.0 mi East 11.5 mph 19.6 mph N/A   Clear
9:35 AM 48.2 °F - 35.6 °F 62% 29.92 in 10.0 mi East 15.0 mph - N/A   Clear
9:55 AM 48.2 °F - 35.6 °F 62% 29.91 in 10.0 mi East 15.0 mph 20.7 mph N/A   Clear
10:15 AM 48.2 °F - 35.6 °F 62% 29.92 in 10.0 mi East 13.8 mph 20.7 mph N/A   Clear
10:35 AM 48.2 °F - 35.6 °F 62% 29.93 in 10.0 mi East 16.1 mph 19.6 mph N/A   Clear
10:55 AM 50.0 °F - 35.6 °F 58% 29.93 in 10.0 mi East 13.8 mph 19.6 mph N/A   Clear
11:15 AM 51.8 °F - 35.6 °F 54% 29.92 in 10.0 mi East 16.1 mph 20.7 mph N/A   Clear
11:35 AM 51.8 °F - 35.6 °F 54% 29.92 in 10.0 mi East 17.3 mph 23.0 mph N/A   Clear
11:55 AM 53.6 °F - 35.6 °F 51% 29.91 in 10.0 mi ENE 15.0 mph 21.9 mph N/A   Clear
12:15 PM 53.6 °F - 35.6 °F 51% 29.90 in 10.0 mi East 19.6 mph 24.2 mph N/A   Clear
12:35 PM 55.4 °F - 35.6 °F 47% 29.89 in 10.0 mi East 17.3 mph 24.2 mph N/A   Clear
12:55 PM 55.4 °F - 37.4 °F 51% 29.89 in 10.0 mi East 16.1 mph 25.3 mph N/A   Clear
1:15 PM 55.4 °F - 35.6 °F 47% 29.89 in 10.0 mi East 16.1 mph 27.6 mph N/A   Clear
1:35 PM 57.2 °F - 35.6 °F 44% 29.88 in 10.0 mi ENE 15.0 mph 24.2 mph N/A   Clear
1:55 PM 59.0 °F - 37.4 °F 45% 29.86 in 10.0 mi East 15.0 mph 23.0 mph N/A   Clear
2:15 PM 59.0 °F - 37.4 °F 45% 29.86 in 10.0 mi East 18.4 mph 25.3 mph N/A   Clear
2:35 PM 60.8 °F - 35.6 °F 39% 29.84 in 10.0 mi East 20.7 mph 26.5 mph N/A   Clear
2:55 PM 59.0 °F - 35.6 °F 42% 29.84 in 10.0 mi East 16.1 mph 26.5 mph N/A   Clear
3:15 PM 60.8 °F - 35.6 °F 39% 29.83 in 10.0 mi East 19.6 mph 31.1 mph N/A   Clear
3:35 PM 62.6 °F - 37.4 °F 39% 29.82 in 10.0 mi East 21.9 mph 26.5 mph N/A   Clear
3:55 PM 62.6 °F - 37.4 °F 39% 29.81 in 10.0 mi East 19.6 mph 24.2 mph N/A   Clear
4:15 PM 62.6 °F - 37.4 °F 39% 29.80 in 10.0 mi East 19.6 mph 27.6 mph N/A   Clear
4:35 PM 60.8 °F - 35.6 °F 39% 29.80 in 10.0 mi East 13.8 mph 26.5 mph N/A   Scattered Clouds
4:55 PM 60.8 °F - 37.4 °F 42% 29.79 in 10.0 mi East 17.3 mph 25.3 mph N/A   Mostly Cloudy
5:15 PM 60.8 °F - 37.4 °F 42% 29.79 in 10.0 mi East 17.3 mph 25.3 mph N/A   Overcast
5:35 PM 59.0 °F - 37.4 °F 45% 29.79 in 10.0 mi East 15.0 mph 21.9 mph N/A   Overcast
5:55 PM 59.0 °F - 37.4 °F 45% 29.78 in 10.0 mi East 15.0 mph 23.0 mph N/A   Overcast
6:15 PM 59.0 °F - 37.4 °F 45% 29.77 in 10.0 mi East 15.0 mph 24.2 mph N/A   Overcast
6:35 PM 59.0 °F - 37.4 °F 45% 29.77 in 10.0 mi East 17.3 mph 24.2 mph N/A   Overcast
6:55 PM 59.0 °F - 37.4 °F 45% 29.76 in 10.0 mi East 15.0 mph 24.2 mph N/A   Mostly Cloudy
7:15 PM 59.0 °F - 37.4 °F 45% 29.75 in 10.0 mi East 12.7 mph 23.0 mph N/A   Mostly Cloudy
7:35 PM 57.2 °F - 35.6 °F 44% 29.74 in 10.0 mi East 15.0 mph 24.2 mph N/A   Scattered Clouds
7:55 PM 55.4 °F - 35.6 °F 47% 29.74 in 10.0 mi East 18.4 mph 24.2 mph N/A   Clear
8:15 PM 55.4 °F - 37.4 °F 51% 29.75 in 10.0 mi East 19.6 mph 24.2 mph N/A   Mostly Cloudy
8:35 PM 55.4 °F - 35.6 °F 47% 29.77 in 10.0 mi East 18.4 mph 25.3 mph N/A   Overcast
9:15 PM 55.4 °F - 35.6 °F 47% 29.78 in 10.0 mi East 17.3 mph 26.5 mph N/A   Overcast
9:35 PM 53.6 °F - 35.6 °F 51% 29.79 in 10.0 mi East 18.4 mph 31.1 mph N/A   Overcast
9:55 PM 53.6 °F - 35.6 °F 51% 29.79 in 10.0 mi East 20.7 mph 36.8 mph N/A   Overcast
10:15 PM 53.6 °F - 35.6 °F 51% 29.80 in 10.0 mi East 24.2 mph 32.2 mph N/A   Overcast
10:35 PM 51.8 °F - 37.4 °F 58% 29.79 in 10.0 mi East 20.7 mph 32.2 mph N/A   Overcast
10:55 PM 51.8 °F - 35.6 °F 54% 29.80 in 10.0 mi East 21.9 mph 34.5 mph N/A   Overcast
11:15 PM 50.0 °F - 35.6 °F 58% 29.80 in 10.0 mi East 21.9 mph 31.1 mph N/A   Overcast
11:35 PM 48.2 °F - 35.6 °F 62% 29.80 in 10.0 mi East 23.0 mph 31.1 mph N/A   Overcast
11:55 PM 48.2 °F - 33.8 °F 58% 29.80 in 10.0 mi East 18.4 mph 38.0 mph N/A   Overcast